sensor_id;sensor_type;location;lat;lon;timestamp;pressure;altitude;pressure_sealevel;temperature
70831;BMP180;58451;51.550;7.208;2023-07-29T00:01:20;100022.40;;;18.74
70831;BMP180;58451;51.550;7.208;2023-07-29T00:02:52;100026.80;;;18.70
70831;BMP180;58451;51.550;7.208;2023-07-29T00:04:24;100026.20;;;18.70
70831;BMP180;58451;51.550;7.208;2023-07-29T00:05:56;100032.40;;;18.70
70831;BMP180;58451;51.550;7.208;2023-07-29T00:07:28;100029.20;;;18.60
70831;BMP180;58451;51.550;7.208;2023-07-29T00:08:59;100033.40;;;18.60
70831;BMP180;58451;51.550;7.208;2023-07-29T00:10:32;100033.40;;;18.58
70831;BMP180;58451;51.550;7.208;2023-07-29T00:12:05;100030.00;;;18.50
70831;BMP180;58451;51.550;7.208;2023-07-29T00:13:36;100033.60;;;18.50
70831;BMP180;58451;51.550;7.208;2023-07-29T00:15:09;100034.80;;;18.50
70831;BMP180;58451;51.550;7.208;2023-07-29T00:16:41;100032.60;;;18.40
70831;BMP180;58451;51.550;7.208;2023-07-29T00:18:14;100033.60;;;18.40
70831;BMP180;58451;51.550;7.208;2023-07-29T00:19:46;100032.00;;;18.40
70831;BMP180;58451;51.550;7.208;2023-07-29T00:21:18;100034.00;;;18.40
70831;BMP180;58451;51.550;7.208;2023-07-29T00:22:50;100031.40;;;18.40
70831;BMP180;58451;51.550;7.208;2023-07-29T00:24:25;100028.60;;;18.32
70831;BMP180;58451;51.550;7.208;2023-07-29T00:25:57;100020.40;;;18.30
70831;BMP180;58451;51.550;7.208;2023-07-29T00:27:29;100020.40;;;18.30
70831;BMP180;58451;51.550;7.208;2023-07-29T00:29:00;100016.60;;;18.30
70831;BMP180;58451;51.550;7.208;2023-07-29T00:30:32;100020.20;;;18.30
70831;BMP180;58451;51.550;7.208;2023-07-29T00:32:05;100024.80;;;18.30
70831;BMP180;58451;51.550;7.208;2023-07-29T00:33:37;100025.40;;;18.30
70831;BMP180;58451;51.550;7.208;2023-07-29T00:35:08;100028.40;;;18.20
70831;BMP180;58451;51.550;7.208;2023-07-29T00:36:41;100027.40;;;18.20
70831;BMP180;58451;51.550;7.208;2023-07-29T00:38:12;100025.20;;;18.20
70831;BMP180;58451;51.550;7.208;2023-07-29T00:39:44;100026.60;;;18.20
70831;BMP180;58451;51.550;7.208;2023-07-29T00:41:16;100023.20;;;18.20
70831;BMP180;58451;51.550;7.208;2023-07-29T00:42:49;100021.80;;;18.20
70831;BMP180;58451;51.550;7.208;2023-07-29T00:44:22;100015.80;;;18.20
70831;BMP180;58451;51.550;7.208;2023-07-29T00:45:54;100016.40;;;18.20
70831;BMP180;58451;51.550;7.208;2023-07-29T00:47:26;100012.00;;;18.20
70831;BMP180;58451;51.550;7.208;2023-07-29T00:48:58;100009.00;;;18.20
70831;BMP180;58451;51.550;7.208;2023-07-29T00:50:32;100008.80;;;18.20
70831;BMP180;58451;51.550;7.208;2023-07-29T00:52:05;100009.00;;;18.18
70831;BMP180;58451;51.550;7.208;2023-07-29T00:53:37;100006.60;;;18.12
70831;BMP180;58451;51.550;7.208;2023-07-29T00:55:11;100003.80;;;18.10
70831;BMP180;58451;51.550;7.208;2023-07-29T00:56:43;100009.20;;;18.10
70831;BMP180;58451;51.550;7.208;2023-07-29T00:58:19;100007.60;;;18.10
70831;BMP180;58451;51.550;7.208;2023-07-29T00:59:54;100007.80;;;18.10
70831;BMP180;58451;51.550;7.208;2023-07-29T01:01:29;100000.00;;;18.10
70831;BMP180;58451;51.550;7.208;2023-07-29T01:03:01;100003.20;;;18.10
70831;BMP180;58451;51.550;7.208;2023-07-29T01:04:33;100001.60;;;18.10
70831;BMP180;58451;51.550;7.208;2023-07-29T01:11:06;99991.20;;;18.00
70831;BMP180;58451;51.550;7.208;2023-07-29T01:12:53;99986.40;;;18.00
70831;BMP180;58451;51.550;7.208;2023-07-29T01:14:34;99978.40;;;18.00
70831;BMP180;58451;51.550;7.208;2023-07-29T01:16:31;99979.00;;;18.00
70831;BMP180;58451;51.550;7.208;2023-07-29T01:18:26;99979.00;;;18.00
70831;BMP180;58451;51.550;7.208;2023-07-29T01:20:24;99975.20;;;17.96
70831;BMP180;58451;51.550;7.208;2023-07-29T01:21:56;99976.40;;;17.94
70831;BMP180;58451;51.550;7.208;2023-07-29T01:23:33;99979.40;;;17.92
70831;BMP180;58451;51.550;7.208;2023-07-29T01:25:06;99978.60;;;17.90
70831;BMP180;58451;51.550;7.208;2023-07-29T01:26:38;99980.00;;;17.90
70831;BMP180;58451;51.550;7.208;2023-07-29T01:28:10;99985.20;;;17.90
70831;BMP180;58451;51.550;7.208;2023-07-29T01:29:42;99992.00;;;17.90
70831;BMP180;58451;51.550;7.208;2023-07-29T01:31:31;99990.00;;;17.94
70831;BMP180;58451;51.550;7.208;2023-07-29T01:35:21;99989.60;;;17.96
70831;BMP180;58451;51.550;7.208;2023-07-29T01:36:58;99989.40;;;17.94
70831;BMP180;58451;51.550;7.208;2023-07-29T01:38:36;99987.20;;;17.94
70831;BMP180;58451;51.550;7.208;2023-07-29T01:40:10;99984.80;;;18.00
70831;BMP180;58451;51.550;7.208;2023-07-29T01:41:44;99988.60;;;18.00
70831;BMP180;58451;51.550;7.208;2023-07-29T01:43:17;99987.00;;;18.00
70831;BMP180;58451;51.550;7.208;2023-07-29T01:44:50;99991.80;;;18.00
70831;BMP180;58451;51.550;7.208;2023-07-29T01:46:22;99988.60;;;18.04
70831;BMP180;58451;51.550;7.208;2023-07-29T01:47:54;99986.20;;;18.10
70831;BMP180;58451;51.550;7.208;2023-07-29T01:49:26;99985.80;;;18.10
70831;BMP180;58451;51.550;7.208;2023-07-29T01:50:58;99982.40;;;18.10
70831;BMP180;58451;51.550;7.208;2023-07-29T01:52:29;99977.20;;;18.12
70831;BMP180;58451;51.550;7.208;2023-07-29T01:54:01;99975.00;;;18.20
70831;BMP180;58451;51.550;7.208;2023-07-29T01:55:33;99966.40;;;18.20
70831;BMP180;58451;51.550;7.208;2023-07-29T01:57:05;99967.80;;;18.20
70831;BMP180;58451;51.550;7.208;2023-07-29T01:58:37;99966.00;;;18.20
70831;BMP180;58451;51.550;7.208;2023-07-29T02:00:09;99969.20;;;18.26
70831;BMP180;58451;51.550;7.208;2023-07-29T02:01:48;99970.80;;;18.30
70831;BMP180;58451;51.550;7.208;2023-07-29T02:03:20;99973.00;;;18.30
70831;BMP180;58451;51.550;7.208;2023-07-29T02:04:52;99969.40;;;18.30
70831;BMP180;58451;51.550;7.208;2023-07-29T02:06:24;99970.20;;;18.30
70831;BMP180;58451;51.550;7.208;2023-07-29T02:07:56;99963.00;;;18.36
70831;BMP180;58451;51.550;7.208;2023-07-29T02:09:28;99959.20;;;18.40
70831;BMP180;58451;51.550;7.208;2023-07-29T02:11:02;99961.40;;;18.40
70831;BMP180;58451;51.550;7.208;2023-07-29T02:12:34;99961.20;;;18.40
70831;BMP180;58451;51.550;7.208;2023-07-29T02:14:06;99959.80;;;18.40
70831;BMP180;58451;51.550;7.208;2023-07-29T02:15:38;99962.40;;;18.40
70831;BMP180;58451;51.550;7.208;2023-07-29T02:17:10;99961.60;;;18.40
70831;BMP180;58451;51.550;7.208;2023-07-29T02:18:42;99960.60;;;18.42
70831;BMP180;58451;51.550;7.208;2023-07-29T02:20:14;99958.20;;;18.50
70831;BMP180;58451;51.550;7.208;2023-07-29T02:21:46;99957.60;;;18.50
70831;BMP180;58451;51.550;7.208;2023-07-29T02:23:18;99960.80;;;18.50
70831;BMP180;58451;51.550;7.208;2023-07-29T02:24:50;99953.60;;;18.50
70831;BMP180;58451;51.550;7.208;2023-07-29T02:26:22;99945.20;;;18.50
70831;BMP180;58451;51.550;7.208;2023-07-29T02:27:54;99937.40;;;18.50
70831;BMP180;58451;51.550;7.208;2023-07-29T02:29:26;99930.20;;;18.50
70831;BMP180;58451;51.550;7.208;2023-07-29T02:31:22;99927.40;;;18.50
70831;BMP180;58451;51.550;7.208;2023-07-29T02:32:54;99928.80;;;18.50
70831;BMP180;58451;51.550;7.208;2023-07-29T02:34:26;99926.20;;;18.50
70831;BMP180;58451;51.550;7.208;2023-07-29T02:35:58;99923.80;;;18.50
70831;BMP180;58451;51.550;7.208;2023-07-29T02:37:30;99925.20;;;18.50
70831;BMP180;58451;51.550;7.208;2023-07-29T02:39:02;99927.00;;;18.50
70831;BMP180;58451;51.550;7.208;2023-07-29T02:40:34;99925.80;;;18.50
70831;BMP180;58451;51.550;7.208;2023-07-29T02:42:06;99922.80;;;18.50
70831;BMP180;58451;51.550;7.208;2023-07-29T02:43:39;99920.00;;;18.50
70831;BMP180;58451;51.550;7.208;2023-07-29T02:45:13;99919.20;;;18.50
70831;BMP180;58451;51.550;7.208;2023-07-29T02:46:45;99916.80;;;18.50
70831;BMP180;58451;51.550;7.208;2023-07-29T02:48:17;99919.80;;;18.50
70831;BMP180;58451;51.550;7.208;2023-07-29T02:49:48;99919.60;;;18.50
70831;BMP180;58451;51.550;7.208;2023-07-29T02:51:20;99916.40;;;18.50
70831;BMP180;58451;51.550;7.208;2023-07-29T02:52:52;99927.20;;;18.50
70831;BMP180;58451;51.550;7.208;2023-07-29T02:54:24;99929.20;;;18.50
70831;BMP180;58451;51.550;7.208;2023-07-29T02:55:56;99933.60;;;18.50
70831;BMP180;58451;51.550;7.208;2023-07-29T02:57:27;99926.40;;;18.50
70831;BMP180;58451;51.550;7.208;2023-07-29T02:59:00;99926.00;;;18.50
70831;BMP180;58451;51.550;7.208;2023-07-29T03:00:33;99924.40;;;18.50
70831;BMP180;58451;51.550;7.208;2023-07-29T03:02:06;99928.00;;;18.50
70831;BMP180;58451;51.550;7.208;2023-07-29T03:03:39;99930.20;;;18.50
70831;BMP180;58451;51.550;7.208;2023-07-29T03:05:11;99934.40;;;18.50
70831;BMP180;58451;51.550;7.208;2023-07-29T03:06:43;99934.40;;;18.50
70831;BMP180;58451;51.550;7.208;2023-07-29T03:08:15;99935.00;;;18.50
70831;BMP180;58451;51.550;7.208;2023-07-29T03:09:47;99935.80;;;18.50
70831;BMP180;58451;51.550;7.208;2023-07-29T03:11:19;99933.80;;;18.50
70831;BMP180;58451;51.550;7.208;2023-07-29T03:12:55;99940.20;;;18.50
70831;BMP180;58451;51.550;7.208;2023-07-29T03:14:27;99941.60;;;18.56
70831;BMP180;58451;51.550;7.208;2023-07-29T03:16:16;99943.80;;;18.60
70831;BMP180;58451;51.550;7.208;2023-07-29T03:17:58;99947.40;;;18.60
70831;BMP180;58451;51.550;7.208;2023-07-29T03:19:30;99949.40;;;18.60
70831;BMP180;58451;51.550;7.208;2023-07-29T03:21:03;99949.40;;;18.60
70831;BMP180;58451;51.550;7.208;2023-07-29T03:22:34;99955.00;;;18.60
70831;BMP180;58451;51.550;7.208;2023-07-29T03:24:06;99958.40;;;18.60
70831;BMP180;58451;51.550;7.208;2023-07-29T03:25:39;99960.20;;;18.60
70831;BMP180;58451;51.550;7.208;2023-07-29T03:27:10;99962.60;;;18.60
70831;BMP180;58451;51.550;7.208;2023-07-29T03:28:43;99960.00;;;18.60
70831;BMP180;58451;51.550;7.208;2023-07-29T03:30:15;99958.00;;;18.60
70831;BMP180;58451;51.550;7.208;2023-07-29T03:31:50;99956.00;;;18.60
70831;BMP180;58451;51.550;7.208;2023-07-29T03:33:22;99947.60;;;18.60
70831;BMP180;58451;51.550;7.208;2023-07-29T03:34:54;99944.80;;;18.60
70831;BMP180;58451;51.550;7.208;2023-07-29T03:36:26;99939.60;;;18.60
70831;BMP180;58451;51.550;7.208;2023-07-29T03:37:58;99941.40;;;18.60
70831;BMP180;58451;51.550;7.208;2023-07-29T03:39:30;99944.20;;;18.60
70831;BMP180;58451;51.550;7.208;2023-07-29T03:41:02;99941.80;;;18.60
70831;BMP180;58451;51.550;7.208;2023-07-29T03:42:36;99939.60;;;18.60
70831;BMP180;58451;51.550;7.208;2023-07-29T03:44:08;99937.60;;;18.60
70831;BMP180;58451;51.550;7.208;2023-07-29T03:45:40;99932.80;;;18.60
70831;BMP180;58451;51.550;7.208;2023-07-29T03:47:12;99931.80;;;18.60
70831;BMP180;58451;51.550;7.208;2023-07-29T03:48:45;99930.20;;;18.60
70831;BMP180;58451;51.550;7.208;2023-07-29T03:50:17;99936.00;;;18.60
70831;BMP180;58451;51.550;7.208;2023-07-29T03:51:49;99931.00;;;18.60
70831;BMP180;58451;51.550;7.208;2023-07-29T03:53:20;99927.40;;;18.60
70831;BMP180;58451;51.550;7.208;2023-07-29T03:54:52;99928.00;;;18.60
70831;BMP180;58451;51.550;7.208;2023-07-29T03:56:24;99931.40;;;18.60
70831;BMP180;58451;51.550;7.208;2023-07-29T03:57:57;99933.60;;;18.60
70831;BMP180;58451;51.550;7.208;2023-07-29T03:59:29;99927.80;;;18.60
70831;BMP180;58451;51.550;7.208;2023-07-29T04:01:01;99930.00;;;18.60
70831;BMP180;58451;51.550;7.208;2023-07-29T04:02:33;99929.00;;;18.60
70831;BMP180;58451;51.550;7.208;2023-07-29T04:04:05;99931.80;;;18.60
70831;BMP180;58451;51.550;7.208;2023-07-29T04:05:37;99927.20;;;18.60
70831;BMP180;58451;51.550;7.208;2023-07-29T04:07:09;99924.60;;;18.60
70831;BMP180;58451;51.550;7.208;2023-07-29T04:08:41;99920.00;;;18.60
70831;BMP180;58451;51.550;7.208;2023-07-29T04:10:13;99917.60;;;18.60
70831;BMP180;58451;51.550;7.208;2023-07-29T04:11:46;99916.60;;;18.60
70831;BMP180;58451;51.550;7.208;2023-07-29T04:13:18;99913.60;;;18.60
70831;BMP180;58451;51.550;7.208;2023-07-29T04:14:50;99916.00;;;18.60
70831;BMP180;58451;51.550;7.208;2023-07-29T04:16:22;99913.80;;;18.60
70831;BMP180;58451;51.550;7.208;2023-07-29T04:17:54;99912.60;;;18.60
70831;BMP180;58451;51.550;7.208;2023-07-29T04:19:25;99911.20;;;18.60
70831;BMP180;58451;51.550;7.208;2023-07-29T04:20:57;99911.40;;;18.60
70831;BMP180;58451;51.550;7.208;2023-07-29T04:22:29;99911.40;;;18.60
70831;BMP180;58451;51.550;7.208;2023-07-29T04:24:01;99913.00;;;18.60
70831;BMP180;58451;51.550;7.208;2023-07-29T04:25:33;99919.00;;;18.60
70831;BMP180;58451;51.550;7.208;2023-07-29T04:27:05;99923.20;;;18.62
70831;BMP180;58451;51.550;7.208;2023-07-29T04:28:37;99922.20;;;18.60
70831;BMP180;58451;51.550;7.208;2023-07-29T04:30:09;99925.40;;;18.60
70831;BMP180;58451;51.550;7.208;2023-07-29T04:31:41;99924.00;;;18.62
70831;BMP180;58451;51.550;7.208;2023-07-29T04:33:14;99916.80;;;18.64
70831;BMP180;58451;51.550;7.208;2023-07-29T04:34:46;99911.80;;;18.70
70831;BMP180;58451;51.550;7.208;2023-07-29T04:36:18;99909.80;;;18.70
70831;BMP180;58451;51.550;7.208;2023-07-29T04:37:50;99910.60;;;18.70
70831;BMP180;58451;51.550;7.208;2023-07-29T04:39:22;99912.40;;;18.70
70831;BMP180;58451;51.550;7.208;2023-07-29T04:40:53;99910.40;;;18.74
70831;BMP180;58451;51.550;7.208;2023-07-29T04:42:25;99911.20;;;18.80
70831;BMP180;58451;51.550;7.208;2023-07-29T04:43:57;99918.80;;;18.80
70831;BMP180;58451;51.550;7.208;2023-07-29T04:45:29;99923.40;;;18.80
70831;BMP180;58451;51.550;7.208;2023-07-29T04:47:02;99925.00;;;18.80
70831;BMP180;58451;51.550;7.208;2023-07-29T04:48:34;99930.60;;;18.80
70831;BMP180;58451;51.550;7.208;2023-07-29T04:50:07;99941.40;;;18.80
70831;BMP180;58451;51.550;7.208;2023-07-29T04:51:41;99944.80;;;18.80
70831;BMP180;58451;51.550;7.208;2023-07-29T04:53:13;99949.80;;;18.80
70831;BMP180;58451;51.550;7.208;2023-07-29T04:54:45;99952.60;;;18.80
70831;BMP180;58451;51.550;7.208;2023-07-29T04:56:16;99952.60;;;18.80
70831;BMP180;58451;51.550;7.208;2023-07-29T04:57:49;99947.20;;;18.82
70831;BMP180;58451;51.550;7.208;2023-07-29T04:59:21;99942.20;;;18.86
70831;BMP180;58451;51.550;7.208;2023-07-29T05:00:53;99950.60;;;18.86
70831;BMP180;58451;51.550;7.208;2023-07-29T05:02:25;99952.80;;;18.82
70831;BMP180;58451;51.550;7.208;2023-07-29T05:03:57;99957.00;;;18.80
70831;BMP180;58451;51.550;7.208;2023-07-29T05:05:29;99958.20;;;18.80
70831;BMP180;58451;51.550;7.208;2023-07-29T05:07:01;99960.20;;;18.80
70831;BMP180;58451;51.550;7.208;2023-07-29T05:08:35;99967.40;;;18.80
70831;BMP180;58451;51.550;7.208;2023-07-29T05:10:07;99966.80;;;18.80
70831;BMP180;58451;51.550;7.208;2023-07-29T05:11:39;99967.60;;;18.80
70831;BMP180;58451;51.550;7.208;2023-07-29T05:13:11;99970.60;;;18.80
70831;BMP180;58451;51.550;7.208;2023-07-29T05:14:43;99972.00;;;18.80
70831;BMP180;58451;51.550;7.208;2023-07-29T05:16:15;99973.00;;;18.78
70831;BMP180;58451;51.550;7.208;2023-07-29T05:17:47;99969.80;;;18.72
70831;BMP180;58451;51.550;7.208;2023-07-29T05:19:19;99965.00;;;18.70
70831;BMP180;58451;51.550;7.208;2023-07-29T05:20:51;99960.80;;;18.74
70831;BMP180;58451;51.550;7.208;2023-07-29T05:22:23;99953.60;;;18.80
70831;BMP180;58451;51.550;7.208;2023-07-29T05:23:55;99939.20;;;18.80
70831;BMP180;58451;51.550;7.208;2023-07-29T05:25:28;99932.00;;;18.80
70831;BMP180;58451;51.550;7.208;2023-07-29T05:27:00;99926.60;;;18.82
70831;BMP180;58451;51.550;7.208;2023-07-29T05:28:32;99924.20;;;18.90
70831;BMP180;58451;51.550;7.208;2023-07-29T05:30:05;99918.60;;;18.90
70831;BMP180;58451;51.550;7.208;2023-07-29T05:31:38;99913.40;;;19.00
70831;BMP180;58451;51.550;7.208;2023-07-29T05:33:11;99911.80;;;19.00
70831;BMP180;58451;51.550;7.208;2023-07-29T05:34:43;99915.20;;;19.10
70831;BMP180;58451;51.550;7.208;2023-07-29T05:36:15;99916.00;;;19.10
70831;BMP180;58451;51.550;7.208;2023-07-29T05:37:47;99922.00;;;19.10
70831;BMP180;58451;51.550;7.208;2023-07-29T05:39:19;99925.80;;;19.20
70831;BMP180;58451;51.550;7.208;2023-07-29T05:40:51;99924.20;;;19.20
70831;BMP180;58451;51.550;7.208;2023-07-29T05:42:23;99928.80;;;19.20
70831;BMP180;58451;51.550;7.208;2023-07-29T05:43:54;99935.60;;;19.20
70831;BMP180;58451;51.550;7.208;2023-07-29T05:45:26;99934.60;;;19.20
70831;BMP180;58451;51.550;7.208;2023-07-29T05:46:58;99942.80;;;19.20
70831;BMP180;58451;51.550;7.208;2023-07-29T05:48:30;99945.60;;;19.20
70831;BMP180;58451;51.550;7.208;2023-07-29T05:50:03;99951.20;;;19.20
70831;BMP180;58451;51.550;7.208;2023-07-29T05:51:36;99960.80;;;19.20
70831;BMP180;58451;51.550;7.208;2023-07-29T05:53:08;99966.40;;;19.20
70831;BMP180;58451;51.550;7.208;2023-07-29T05:54:40;99969.20;;;19.20
70831;BMP180;58451;51.550;7.208;2023-07-29T05:56:12;99968.60;;;19.20
70831;BMP180;58451;51.550;7.208;2023-07-29T05:57:44;99974.80;;;19.20
70831;BMP180;58451;51.550;7.208;2023-07-29T05:59:16;99979.20;;;19.20
70831;BMP180;58451;51.550;7.208;2023-07-29T06:00:48;99982.00;;;19.20
70831;BMP180;58451;51.550;7.208;2023-07-29T06:02:22;99985.60;;;19.20
70831;BMP180;58451;51.550;7.208;2023-07-29T06:03:54;99991.20;;;19.18
70831;BMP180;58451;51.550;7.208;2023-07-29T06:05:27;99996.00;;;19.10
70831;BMP180;58451;51.550;7.208;2023-07-29T06:06:59;99994.00;;;19.10
70831;BMP180;58451;51.550;7.208;2023-07-29T06:08:31;99993.00;;;19.08
70831;BMP180;58451;51.550;7.208;2023-07-29T06:10:06;99987.20;;;19.10
70831;BMP180;58451;51.550;7.208;2023-07-29T06:11:39;99989.00;;;19.10
70831;BMP180;58451;51.550;7.208;2023-07-29T06:13:11;99998.20;;;19.10
70831;BMP180;58451;51.550;7.208;2023-07-29T06:14:43;100002.60;;;19.10
70831;BMP180;58451;51.550;7.208;2023-07-29T06:16:14;100000.40;;;19.10
70831;BMP180;58451;51.550;7.208;2023-07-29T06:17:46;100001.40;;;19.10
70831;BMP180;58451;51.550;7.208;2023-07-29T06:19:20;99999.00;;;19.10
70831;BMP180;58451;51.550;7.208;2023-07-29T06:20:52;100000.80;;;19.10
70831;BMP180;58451;51.550;7.208;2023-07-29T06:22:24;100003.40;;;19.10
70831;BMP180;58451;51.550;7.208;2023-07-29T06:23:57;100008.00;;;19.20
70831;BMP180;58451;51.550;7.208;2023-07-29T06:25:28;100009.00;;;19.20
70831;BMP180;58451;51.550;7.208;2023-07-29T06:27:00;100016.40;;;19.20
70831;BMP180;58451;51.550;7.208;2023-07-29T06:28:32;100016.00;;;19.16
70831;BMP180;58451;51.550;7.208;2023-07-29T06:30:05;100016.00;;;19.20
70831;BMP180;58451;51.550;7.208;2023-07-29T06:31:37;100014.20;;;19.20
70831;BMP180;58451;51.550;7.208;2023-07-29T06:33:09;100024.20;;;19.20
70831;BMP180;58451;51.550;7.208;2023-07-29T06:34:41;100025.20;;;19.20
70831;BMP180;58451;51.550;7.208;2023-07-29T06:36:13;100032.80;;;19.30
70831;BMP180;58451;51.550;7.208;2023-07-29T06:37:45;100044.00;;;19.30
70831;BMP180;58451;51.550;7.208;2023-07-29T06:39:17;100039.60;;;19.30
70831;BMP180;58451;51.550;7.208;2023-07-29T06:40:48;100045.60;;;19.30
70831;BMP180;58451;51.550;7.208;2023-07-29T06:42:20;100047.40;;;19.38
70831;BMP180;58451;51.550;7.208;2023-07-29T06:43:52;100050.00;;;19.40
70831;BMP180;58451;51.550;7.208;2023-07-29T06:45:24;100045.60;;;19.50
70831;BMP180;58451;51.550;7.208;2023-07-29T06:46:58;100044.20;;;19.50
70831;BMP180;58451;51.550;7.208;2023-07-29T06:48:30;100042.80;;;19.60
70831;BMP180;58451;51.550;7.208;2023-07-29T06:50:01;100041.80;;;19.52
70831;BMP180;58451;51.550;7.208;2023-07-29T06:51:34;100037.60;;;19.60
70831;BMP180;58451;51.550;7.208;2023-07-29T06:53:06;100038.80;;;19.60
70831;BMP180;58451;51.550;7.208;2023-07-29T06:54:38;100037.00;;;19.60
70831;BMP180;58451;51.550;7.208;2023-07-29T06:56:10;100035.20;;;19.60
70831;BMP180;58451;51.550;7.208;2023-07-29T06:57:42;100036.60;;;19.60
70831;BMP180;58451;51.550;7.208;2023-07-29T06:59:14;100038.00;;;19.60
70831;BMP180;58451;51.550;7.208;2023-07-29T07:00:45;100038.80;;;19.60
70831;BMP180;58451;51.550;7.208;2023-07-29T07:02:17;100039.60;;;19.60
70831;BMP180;58451;51.550;7.208;2023-07-29T07:03:49;100039.80;;;19.60
70831;BMP180;58451;51.550;7.208;2023-07-29T07:05:21;100040.40;;;19.56
70831;BMP180;58451;51.550;7.208;2023-07-29T07:06:53;100042.00;;;19.52
70831;BMP180;58451;51.550;7.208;2023-07-29T07:08:25;100041.80;;;19.50
70831;BMP180;58451;51.550;7.208;2023-07-29T07:09:56;100044.40;;;19.50
70831;BMP180;58451;51.550;7.208;2023-07-29T07:11:32;100038.00;;;19.50
70831;BMP180;58451;51.550;7.208;2023-07-29T07:13:03;100041.40;;;19.50
70831;BMP180;58451;51.550;7.208;2023-07-29T07:14:37;100038.00;;;19.50
70831;BMP180;58451;51.550;7.208;2023-07-29T07:16:09;100035.40;;;19.50
70831;BMP180;58451;51.550;7.208;2023-07-29T07:17:41;100038.40;;;19.60
70831;BMP180;58451;51.550;7.208;2023-07-29T07:19:13;100035.80;;;19.60
70831;BMP180;58451;51.550;7.208;2023-07-29T07:20:48;100036.20;;;19.66
70831;BMP180;58451;51.550;7.208;2023-07-29T07:22:21;100041.20;;;19.68
70831;BMP180;58451;51.550;7.208;2023-07-29T07:23:52;100044.80;;;19.70
70831;BMP180;58451;51.550;7.208;2023-07-29T07:25:24;100047.60;;;19.60
70831;BMP180;58451;51.550;7.208;2023-07-29T07:26:56;100048.20;;;19.50
70831;BMP180;58451;51.550;7.208;2023-07-29T07:28:28;100045.20;;;19.50
70831;BMP180;58451;51.550;7.208;2023-07-29T07:30:00;100042.80;;;19.56
70831;BMP180;58451;51.550;7.208;2023-07-29T07:31:33;100046.00;;;19.60
70831;BMP180;58451;51.550;7.208;2023-07-29T07:33:06;100040.80;;;19.70
70831;BMP180;58451;51.550;7.208;2023-07-29T07:34:38;100040.60;;;19.78
70831;BMP180;58451;51.550;7.208;2023-07-29T07:36:10;100039.00;;;19.80
70831;BMP180;58451;51.550;7.208;2023-07-29T07:37:42;100038.00;;;19.90
70831;BMP180;58451;51.550;7.208;2023-07-29T07:39:14;100035.60;;;20.00
70831;BMP180;58451;51.550;7.208;2023-07-29T07:40:58;100036.80;;;20.20
70831;BMP180;58451;51.550;7.208;2023-07-29T07:42:30;100037.00;;;20.30
70831;BMP180;58451;51.550;7.208;2023-07-29T07:44:02;100037.20;;;20.40
70831;BMP180;58451;51.550;7.208;2023-07-29T07:45:34;100038.20;;;20.44
70831;BMP180;58451;51.550;7.208;2023-07-29T07:47:06;100052.60;;;20.50
70831;BMP180;58451;51.550;7.208;2023-07-29T07:48:38;100042.40;;;20.46
70831;BMP180;58451;51.550;7.208;2023-07-29T07:50:10;100049.60;;;20.50
70831;BMP180;58451;51.550;7.208;2023-07-29T07:51:44;100045.80;;;20.50
70831;BMP180;58451;51.550;7.208;2023-07-29T07:53:16;100046.80;;;20.50
70831;BMP180;58451;51.550;7.208;2023-07-29T07:54:52;100049.80;;;20.60
70831;BMP180;58451;51.550;7.208;2023-07-29T07:56:25;100043.60;;;20.62
70831;BMP180;58451;51.550;7.208;2023-07-29T07:57:57;100039.20;;;20.70
70831;BMP180;58451;51.550;7.208;2023-07-29T07:59:28;100045.20;;;20.82
70831;BMP180;58451;51.550;7.208;2023-07-29T08:01:05;100035.20;;;20.90
70831;BMP180;58451;51.550;7.208;2023-07-29T08:02:38;100030.60;;;20.98
70831;BMP180;58451;51.550;7.208;2023-07-29T08:04:09;100033.40;;;21.00
70831;BMP180;58451;51.550;7.208;2023-07-29T08:05:41;100036.40;;;21.10
70831;BMP180;58451;51.550;7.208;2023-07-29T08:07:13;100033.40;;;21.10
70831;BMP180;58451;51.550;7.208;2023-07-29T08:08:45;100031.00;;;21.20
70831;BMP180;58451;51.550;7.208;2023-07-29T08:10:17;100031.00;;;21.20
70831;BMP180;58451;51.550;7.208;2023-07-29T08:11:49;100030.80;;;21.16
70831;BMP180;58451;51.550;7.208;2023-07-29T08:13:22;100031.80;;;21.10
70831;BMP180;58451;51.550;7.208;2023-07-29T08:14:54;100035.40;;;21.00
70831;BMP180;58451;51.550;7.208;2023-07-29T08:16:26;100037.20;;;20.90
70831;BMP180;58451;51.550;7.208;2023-07-29T08:17:57;100035.40;;;20.80
70831;BMP180;58451;51.550;7.208;2023-07-29T08:19:29;100035.20;;;20.90
70831;BMP180;58451;51.550;7.208;2023-07-29T08:21:01;100032.00;;;20.90
70831;BMP180;58451;51.550;7.208;2023-07-29T08:22:36;100039.20;;;21.00
70831;BMP180;58451;51.550;7.208;2023-07-29T08:24:09;100037.20;;;20.94
70831;BMP180;58451;51.550;7.208;2023-07-29T08:25:40;100034.80;;;21.00
70831;BMP180;58451;51.550;7.208;2023-07-29T08:27:12;100040.60;;;21.10
70831;BMP180;58451;51.550;7.208;2023-07-29T08:28:44;100044.80;;;21.22
70831;BMP180;58451;51.550;7.208;2023-07-29T08:30:16;100042.00;;;21.30
70831;BMP180;58451;51.550;7.208;2023-07-29T08:31:48;100041.40;;;21.40
70831;BMP180;58451;51.550;7.208;2023-07-29T08:33:23;100038.40;;;21.40
70831;BMP180;58451;51.550;7.208;2023-07-29T08:34:56;100046.20;;;21.40
70831;BMP180;58451;51.550;7.208;2023-07-29T08:36:27;100046.40;;;21.20
70831;BMP180;58451;51.550;7.208;2023-07-29T08:37:59;100040.40;;;21.20
70831;BMP180;58451;51.550;7.208;2023-07-29T08:39:31;100045.20;;;21.20
70831;BMP180;58451;51.550;7.208;2023-07-29T08:41:21;100041.00;;;21.24
70831;BMP180;58451;51.550;7.208;2023-07-29T08:42:58;100044.60;;;21.30
70831;BMP180;58451;51.550;7.208;2023-07-29T08:44:40;100044.60;;;21.40
70831;BMP180;58451;51.550;7.208;2023-07-29T08:46:13;100049.60;;;21.40
70831;BMP180;58451;51.550;7.208;2023-07-29T08:47:47;100035.40;;;21.40
70831;BMP180;58451;51.550;7.208;2023-07-29T08:49:21;100038.20;;;21.50
70831;BMP180;58451;51.550;7.208;2023-07-29T08:50:55;100028.60;;;21.60
70831;BMP180;58451;51.550;7.208;2023-07-29T08:52:29;100040.40;;;21.60
70831;BMP180;58451;51.550;7.208;2023-07-29T08:54:04;100045.40;;;21.60
70831;BMP180;58451;51.550;7.208;2023-07-29T08:55:37;100040.60;;;21.60
70831;BMP180;58451;51.550;7.208;2023-07-29T08:57:10;100039.80;;;21.60
70831;BMP180;58451;51.550;7.208;2023-07-29T08:58:43;100044.20;;;21.60
70831;BMP180;58451;51.550;7.208;2023-07-29T09:00:16;100046.60;;;21.60